createdAt,value
2018-02-07T00:00:38.034Z,94.51
2018-02-07T00:01:38.010Z,93.75
2018-02-07T00:02:37.980Z,93.75
2018-02-07T00:03:37.953Z,93.37
2018-02-07T00:04:37.921Z,93.94
2018-02-07T00:05:37.922Z,94.13
2018-02-07T00:06:37.862Z,94.22
2018-02-07T00:07:37.828Z,93.75
2018-02-07T00:08:37.796Z,94.13
2018-02-07T00:09:37.769Z,94.03
2018-02-07T00:10:37.744Z,94.79
2018-02-07T00:11:37.713Z,93.94
2018-02-07T00:12:37.679Z,94.13
2018-02-07T00:13:37.652Z,93.56
2018-02-07T00:14:37.620Z,94.41
2018-02-07T00:15:37.592Z,94.03
2018-02-07T00:16:37.561Z,94.13
2018-02-07T00:17:37.532Z,93.94
2018-02-07T00:18:37.502Z,93.84
2018-02-07T00:19:37.474Z,94.79
2018-02-07T00:20:37.443Z,93.84
2018-02-07T00:21:37.412Z,94.13
2018-02-07T00:22:37.384Z,93.84
2018-02-07T00:23:37.359Z,94.41
2018-02-07T00:24:37.324Z,94.03
2018-02-07T00:25:37.294Z,94.51
2018-02-07T00:26:37.263Z,94.51
2018-02-07T00:27:37.229Z,94.60
2018-02-07T00:28:37.206Z,94.79
2018-02-07T00:29:37.176Z,94.60
2018-02-07T00:30:37.143Z,94.51
2018-02-07T00:31:37.115Z,94.51
2018-02-07T00:32:37.085Z,94.60
2018-02-07T00:33:37.054Z,95.36
2018-02-07T00:34:37.022Z,94.22
2018-02-07T00:35:36.995Z,94.51
2018-02-07T00:36:36.964Z,94.32
2018-02-07T00:37:36.932Z,94.79
2018-02-07T00:38:36.906Z,94.70
2018-02-07T00:39:36.877Z,94.84
2018-02-07T00:40:36.844Z,94.70
2018-02-07T00:41:36.815Z,95.03
2018-02-07T00:42:36.786Z,94.27
2018-02-07T00:43:36.760Z,94.56
2018-02-07T00:44:36.726Z,94.46
2018-02-07T00:45:36.698Z,94.65
2018-02-07T00:46:36.666Z,94.93
2018-02-07T00:47:36.635Z,94.65
2018-02-07T00:48:36.604Z,95.03
2018-02-07T00:49:36.574Z,95.21
2018-02-07T00:50:36.558Z,95.21
2018-02-07T00:51:36.515Z,95.21
2018-02-07T00:52:36.483Z,95.03
2018-02-07T00:53:36.454Z,95.12
2018-02-07T00:54:36.424Z,95.31
2018-02-07T00:55:36.397Z,95.12
2018-02-07T00:56:36.362Z,95.31
2018-02-07T00:57:36.332Z,94.74
2018-02-07T00:58:36.303Z,94.93
2018-02-07T00:59:36.273Z,95.12
2018-02-07T01:00:36.241Z,95.12
2018-02-07T01:01:36.213Z,95.31
2018-02-07T01:02:36.181Z,94.74
2018-02-07T01:03:36.152Z,95.59
2018-02-07T01:04:36.121Z,95.12
2018-02-07T01:05:36.090Z,95.12
2018-02-07T01:06:36.061Z,95.03
2018-02-07T01:07:36.030Z,94.93
2018-02-07T01:08:36.002Z,94.74
2018-02-07T01:09:35.971Z,94.84
2018-02-07T01:10:35.941Z,94.93
2018-02-07T01:11:35.912Z,95.40
2018-02-07T01:12:35.880Z,95.03
2018-02-07T01:13:35.847Z,94.74
2018-02-07T01:14:35.821Z,94.74
2018-02-07T01:15:35.791Z,95.31
2018-02-07T01:16:35.760Z,94.74
2018-02-07T01:17:35.731Z,94.93
2018-02-07T01:18:35.749Z,95.31
2018-02-07T01:19:35.673Z,95.03
2018-02-07T01:20:35.640Z,94.84
2018-02-07T01:21:35.608Z,94.84
2018-02-07T01:22:35.579Z,95.12
2018-02-07T01:23:35.549Z,95.40
2018-02-07T01:24:35.520Z,95.40
2018-02-07T01:25:35.490Z,95.21
2018-02-07T01:26:35.459Z,95.12
2018-02-07T01:27:35.429Z,95.03
2018-02-07T01:28:35.450Z,94.93
2018-02-07T01:29:35.366Z,95.40
2018-02-07T01:30:35.337Z,95.40
2018-02-07T01:31:35.309Z,94.74
2018-02-07T01:32:35.277Z,95.03
2018-02-07T01:33:35.246Z,95.21
2018-02-07T01:34:35.216Z,94.93
2018-02-07T01:35:35.187Z,94.93
2018-02-07T01:36:35.157Z,95.40
2018-02-07T01:37:35.127Z,94.56
2018-02-07T01:38:35.099Z,95.59
2018-02-07T01:39:35.066Z,95.68
2018-02-07T01:40:35.035Z,95.21
2018-02-07T01:41:35.006Z,95.12
2018-02-07T01:42:34.975Z,95.21
2018-02-07T01:43:34.945Z,95.31
2018-02-07T01:44:34.914Z,95.31
2018-02-07T01:45:34.885Z,95.31
2018-02-07T01:46:34.853Z,95.21
2018-02-07T01:47:34.824Z,95.40
2018-02-07T01:48:34.793Z,95.21
2018-02-07T01:49:34.764Z,95.40
2018-02-07T01:50:34.734Z,94.93
2018-02-07T01:51:34.704Z,94.93
2018-02-07T01:52:34.673Z,95.50
2018-02-07T01:53:34.641Z,95.40
2018-02-07T01:54:34.613Z,95.31
2018-02-07T01:55:34.583Z,94.74
2018-02-07T01:56:34.552Z,94.74
2018-02-07T01:57:34.520Z,94.93
2018-02-07T01:58:34.491Z,95.40
2018-02-07T01:59:34.460Z,94.84
2018-02-07T02:00:34.431Z,95.40
2018-02-07T02:01:34.400Z,94.84
2018-02-07T02:02:34.369Z,94.74
2018-02-07T02:03:34.339Z,94.46
2018-02-07T02:04:34.308Z,94.93
2018-02-07T02:05:34.279Z,95.12
2018-02-07T02:06:34.248Z,94.65
2018-02-07T02:07:34.219Z,95.03
2018-02-07T02:08:34.187Z,94.84
2018-02-07T02:09:34.156Z,94.65
2018-02-07T02:10:34.128Z,94.74
2018-02-07T02:11:34.097Z,94.74
2018-02-07T02:12:34.068Z,94.65
2018-02-07T02:13:34.037Z,94.84
2018-02-07T02:14:34.006Z,94.93
2018-02-07T02:15:33.976Z,95.12
2018-02-07T02:16:33.945Z,94.93
2018-02-07T02:17:33.916Z,94.93
2018-02-07T02:18:33.887Z,94.93
2018-02-07T02:19:33.857Z,94.74
2018-02-07T02:20:33.830Z,94.74
2018-02-07T02:21:33.794Z,94.74
2018-02-07T02:22:33.765Z,95.21
2018-02-07T02:23:33.738Z,94.65
2018-02-07T02:24:33.703Z,95.21
2018-02-07T02:25:33.674Z,95.21
2018-02-07T02:26:33.644Z,94.93
2018-02-07T02:27:33.615Z,95.87
2018-02-07T02:28:33.584Z,95.12
2018-02-07T02:29:33.549Z,95.21
2018-02-07T02:30:33.523Z,95.21
2018-02-07T02:31:33.493Z,95.12
2018-02-07T02:32:33.461Z,95.50
2018-02-07T02:33:33.431Z,95.40
2018-02-07T02:34:33.402Z,95.12
2018-02-07T02:35:33.372Z,94.74
2018-02-07T02:36:33.340Z,94.65
2018-02-07T02:37:33.310Z,95.21
2018-02-07T02:38:33.281Z,95.12
2018-02-07T02:39:33.250Z,95.50
2018-02-07T02:40:33.220Z,95.59
2018-02-07T02:41:33.193Z,95.50
2018-02-07T02:42:33.161Z,95.59
2018-02-07T02:43:33.129Z,95.21
2018-02-07T02:44:33.098Z,96.06
2018-02-07T02:45:33.070Z,95.31
2018-02-07T02:46:33.042Z,95.50
2018-02-07T02:47:33.010Z,95.68
2018-02-07T02:48:32.980Z,95.40
2018-02-07T02:49:32.947Z,95.50
2018-02-07T02:50:32.919Z,95.68
2018-02-07T02:51:32.887Z,95.12
2018-02-07T02:52:32.858Z,95.40
2018-02-07T02:53:32.827Z,95.40
2018-02-07T02:54:32.797Z,95.12
2018-02-07T02:55:32.797Z,95.59
2018-02-07T02:56:32.736Z,95.40
2018-02-07T02:57:32.706Z,95.21
2018-02-07T02:58:32.676Z,95.59
2018-02-07T02:59:32.646Z,95.40
2018-02-07T03:00:32.615Z,95.59
2018-02-07T03:01:32.584Z,95.50
2018-02-07T03:02:32.554Z,95.03
2018-02-07T03:03:32.522Z,95.50
2018-02-07T03:04:32.495Z,95.31
2018-02-07T03:05:32.466Z,95.68
2018-02-07T03:06:32.434Z,95.40
2018-02-07T03:07:32.403Z,95.50
2018-02-07T03:08:32.374Z,95.59
2018-02-07T03:09:32.341Z,95.68
2018-02-07T03:10:32.312Z,95.50
2018-02-07T03:11:32.281Z,95.50
2018-02-07T03:12:32.251Z,95.59
2018-02-07T03:13:32.221Z,96.06
2018-02-07T03:14:32.190Z,95.12
2018-02-07T03:15:32.160Z,95.50
2018-02-07T03:16:32.127Z,95.68
2018-02-07T03:17:32.099Z,95.50
2018-02-07T03:18:32.069Z,95.50
2018-02-07T03:19:32.040Z,95.40
2018-02-07T03:20:32.010Z,95.50
2018-02-07T03:21:32.027Z,95.50
2018-02-07T03:22:31.945Z,95.50
2018-02-07T03:23:31.915Z,95.59
2018-02-07T03:24:31.886Z,95.31
2018-02-07T03:25:31.854Z,95.50
2018-02-07T03:26:31.825Z,95.78
2018-02-07T03:27:31.794Z,95.87
2018-02-07T03:28:31.764Z,95.68
2018-02-07T03:29:31.732Z,95.68
2018-02-07T03:30:31.702Z,95.40
2018-02-07T03:31:31.675Z,94.84
2018-02-07T03:32:31.640Z,95.26
2018-02-07T03:33:31.611Z,95.45
2018-02-07T03:34:31.579Z,95.31
2018-02-07T03:35:31.550Z,95.17
2018-02-07T03:36:31.519Z,95.45
2018-02-07T03:37:31.488Z,95.68
2018-02-07T03:38:31.458Z,95.54
2018-02-07T03:39:31.427Z,95.45
2018-02-07T03:40:31.396Z,95.59
2018-02-07T03:41:31.370Z,95.54
2018-02-07T03:42:31.335Z,95.54
2018-02-07T03:43:31.308Z,95.45
2018-02-07T03:44:31.275Z,95.31
2018-02-07T03:45:31.244Z,95.45
2018-02-07T03:46:31.213Z,95.68
2018-02-07T03:47:31.184Z,95.54
2018-02-07T03:48:31.151Z,95.26
2018-02-07T03:49:31.121Z,95.26
2018-02-07T03:50:31.092Z,95.40
2018-02-07T03:51:31.063Z,95.45
2018-02-07T03:52:31.030Z,95.07
2018-02-07T03:53:31.001Z,95.31
2018-02-07T03:54:30.970Z,95.45
2018-02-07T03:55:30.939Z,95.50
2018-02-07T03:56:30.909Z,95.45
2018-02-07T03:57:30.877Z,95.26
2018-02-07T03:58:30.847Z,95.36
2018-02-07T03:59:30.819Z,95.45
2018-02-07T04:00:30.786Z,95.64
2018-02-07T04:01:30.757Z,95.26
2018-02-07T04:02:30.727Z,95.26
2018-02-07T04:03:30.695Z,95.26
2018-02-07T04:04:30.665Z,95.54
2018-02-07T04:05:30.634Z,95.54
2018-02-07T04:06:30.604Z,95.83
2018-02-07T04:07:30.576Z,95.64
2018-02-07T04:08:30.542Z,95.54
2018-02-07T04:09:30.518Z,95.54
2018-02-07T04:10:30.481Z,95.54
2018-02-07T04:11:30.450Z,95.26
2018-02-07T04:12:30.427Z,95.26
2018-02-07T04:13:30.390Z,95.45
2018-02-07T04:14:30.361Z,95.45
2018-02-07T04:15:30.330Z,95.64
2018-02-07T04:16:30.298Z,95.36
2018-02-07T04:17:30.267Z,95.54
2018-02-07T04:18:30.238Z,95.54
2018-02-07T04:19:30.212Z,95.36
2018-02-07T04:20:30.176Z,95.45
2018-02-07T04:21:30.146Z,95.54
2018-02-07T04:22:30.114Z,95.45
2018-02-07T04:23:30.086Z,96.01
2018-02-07T04:24:30.054Z,95.54
2018-02-07T04:25:30.023Z,95.45
2018-02-07T04:26:29.992Z,95.17
2018-02-07T04:27:29.961Z,95.07
2018-02-07T04:28:29.930Z,95.07
2018-02-07T04:29:29.900Z,95.26
2018-02-07T04:30:29.868Z,95.83
2018-02-07T04:31:29.839Z,95.64
2018-02-07T04:32:29.809Z,95.26
2018-02-07T04:33:29.778Z,96.11
2018-02-07T04:34:29.747Z,95.54
2018-02-07T04:35:29.716Z,95.54
2018-02-07T04:36:29.685Z,95.64
2018-02-07T04:37:29.655Z,95.45
2018-02-07T04:38:29.624Z,95.64
2018-02-07T04:39:29.593Z,95.17
2018-02-07T04:40:29.563Z,95.54
2018-02-07T04:41:29.532Z,95.45
2018-02-07T04:42:29.501Z,95.45
2018-02-07T04:43:29.471Z,95.73
2018-02-07T04:44:29.439Z,96.01
2018-02-07T04:45:29.407Z,94.98
2018-02-07T04:46:29.379Z,95.36
2018-02-07T04:47:29.348Z,95.64
2018-02-07T04:48:29.315Z,95.54
2018-02-07T04:49:29.285Z,95.26
2018-02-07T04:50:29.255Z,95.45
2018-02-07T04:51:29.225Z,95.26
2018-02-07T04:52:29.194Z,95.45
2018-02-07T04:53:29.162Z,95.83
2018-02-07T04:54:29.132Z,95.17
2018-02-07T04:55:29.102Z,95.54
2018-02-07T04:56:29.069Z,95.45
2018-02-07T04:57:29.039Z,95.36
2018-02-07T04:58:29.007Z,95.36
2018-02-07T04:59:28.977Z,95.07
2018-02-07T05:00:28.946Z,95.36
2018-02-07T05:01:28.926Z,95.45
2018-02-07T05:02:28.897Z,95.07
2018-02-07T05:03:28.886Z,95.36
2018-02-07T05:04:28.831Z,95.17
2018-02-07T05:05:28.802Z,95.54
2018-02-07T05:06:28.773Z,95.45
2018-02-07T05:07:28.746Z,95.54
2018-02-07T05:08:28.712Z,95.54
2018-02-07T05:09:28.686Z,95.45
2018-02-07T05:10:28.650Z,95.54
2018-02-07T05:11:28.608Z,95.45
2018-02-07T05:12:28.600Z,95.26
2018-02-07T05:13:28.556Z,95.54
2018-02-07T05:14:28.515Z,95.64
2018-02-07T05:15:28.485Z,95.26
2018-02-07T05:16:28.465Z,95.36
2018-02-07T05:17:28.445Z,95.45
2018-02-07T05:18:28.399Z,95.45
2018-02-07T05:19:28.371Z,95.45
2018-02-07T05:20:28.340Z,95.36
2018-02-07T05:21:28.312Z,95.73
2018-02-07T05:22:28.275Z,95.26
2018-02-07T05:23:28.239Z,96.11
2018-02-07T05:24:28.215Z,95.17
2018-02-07T05:25:28.178Z,95.26
2018-02-07T05:26:28.159Z,96.20
2018-02-07T05:27:28.116Z,95.36
2018-02-07T05:28:28.093Z,95.83
2018-02-07T05:29:28.059Z,95.17
2018-02-07T05:30:28.022Z,96.01
2018-02-07T05:31:27.989Z,95.73
2018-02-07T05:32:27.962Z,96.01
2018-02-07T05:33:27.936Z,96.01
2018-02-07T05:34:27.907Z,96.01
2018-02-07T05:35:27.885Z,94.98
2018-02-07T05:36:27.833Z,96.30
2018-02-07T05:37:27.818Z,96.01
2018-02-07T05:38:28.051Z,96.11
2018-02-07T05:39:28.059Z,95.92
2018-02-07T05:40:27.713Z,96.01
2018-02-07T05:41:27.680Z,95.83
2018-02-07T05:42:27.647Z,96.01
2018-02-07T05:43:27.624Z,96.30
2018-02-07T05:44:27.584Z,95.92
2018-02-07T05:45:27.553Z,95.64
2018-02-07T05:46:27.523Z,95.92
2018-02-07T05:47:27.493Z,95.83
2018-02-07T05:48:27.459Z,95.97
2018-02-07T05:49:27.428Z,95.59
2018-02-07T05:50:27.398Z,95.87
2018-02-07T05:51:27.366Z,95.78
2018-02-07T05:52:27.333Z,95.97
2018-02-07T05:53:27.304Z,95.97
2018-02-07T05:54:27.272Z,95.87
2018-02-07T05:55:27.241Z,95.68
2018-02-07T05:56:27.209Z,95.68
2018-02-07T05:57:27.177Z,95.97
2018-02-07T05:58:27.150Z,95.97
2018-02-07T05:59:27.116Z,96.06
2018-02-07T06:00:27.082Z,96.06
2018-02-07T06:01:27.052Z,95.50
2018-02-07T06:02:27.023Z,95.78
2018-02-07T06:03:26.990Z,95.59
2018-02-07T06:04:26.958Z,96.34
2018-02-07T06:05:26.927Z,95.68
2018-02-07T06:06:26.894Z,95.78
2018-02-07T06:07:26.863Z,95.87
2018-02-07T06:08:26.831Z,95.68
2018-02-07T06:09:26.800Z,95.68
2018-02-07T06:10:26.769Z,95.59
2018-02-07T06:11:26.740Z,95.59
2018-02-07T06:12:26.705Z,96.06
2018-02-07T06:13:26.675Z,95.59
2018-02-07T06:14:26.643Z,96.06
2018-02-07T06:15:26.612Z,95.78
2018-02-07T06:16:26.580Z,95.59
2018-02-07T06:17:26.549Z,95.78
2018-02-07T06:18:26.518Z,95.50
2018-02-07T06:19:26.485Z,95.40
2018-02-07T06:20:26.453Z,96.25
2018-02-07T06:21:26.422Z,95.87
2018-02-07T06:22:26.393Z,95.50
2018-02-07T06:23:26.360Z,95.50
2018-02-07T06:24:26.327Z,95.50
2018-02-07T06:25:26.296Z,95.31
2018-02-07T06:26:26.265Z,95.97
2018-02-07T06:27:26.234Z,95.87
2018-02-07T06:28:26.201Z,95.40
2018-02-07T06:29:26.169Z,95.31
2018-02-07T06:30:26.210Z,95.59
2018-02-07T06:31:26.106Z,95.78
2018-02-07T06:32:26.075Z,95.31
2018-02-07T06:33:26.045Z,95.59
2018-02-07T06:34:26.012Z,95.50
2018-02-07T06:35:25.983Z,95.78
2018-02-07T06:36:25.961Z,95.50
2018-02-07T06:37:25.950Z,95.78
2018-02-07T06:38:25.889Z,95.59
2018-02-07T06:39:25.854Z,95.40
2018-02-07T06:40:25.819Z,95.40
2018-02-07T06:41:25.801Z,95.59
2018-02-07T06:42:25.760Z,95.59
2018-02-07T06:43:25.727Z,95.31
2018-02-07T06:44:25.693Z,95.31
2018-02-07T06:45:25.660Z,95.59
2018-02-07T06:46:25.647Z,95.40
2018-02-07T06:47:25.621Z,95.21
2018-02-07T06:48:25.572Z,95.50
2018-02-07T06:49:25.537Z,95.59
2018-02-07T06:50:25.532Z,95.17
2018-02-07T06:51:25.472Z,95.45
2018-02-07T06:52:25.489Z,95.17
2018-02-07T06:53:25.412Z,95.45
2018-02-07T06:54:25.400Z,95.17
2018-02-07T06:55:25.354Z,95.64
2018-02-07T06:56:25.315Z,95.07
2018-02-07T06:57:25.282Z,94.41
2018-02-07T06:58:25.250Z,94.79
2018-02-07T06:59:25.224Z,95.54
2018-02-07T07:00:25.189Z,94.98
2018-02-07T07:01:25.150Z,95.54
2018-02-07T07:02:25.127Z,95.36
2018-02-07T07:03:25.098Z,95.45
2018-02-07T07:04:25.057Z,95.45
2018-02-07T07:05:25.027Z,94.69
2018-02-07T07:06:25.004Z,95.07
2018-02-07T07:07:24.963Z,94.69
2018-02-07T07:08:24.931Z,95.26
2018-02-07T07:09:24.916Z,95.17
2018-02-07T07:10:24.878Z,94.41
2018-02-07T07:11:25.589Z,94.79
2018-02-07T07:12:24.811Z,95.36
2018-02-07T07:13:24.775Z,94.32
2018-02-07T07:14:24.750Z,94.41
2018-02-07T07:15:24.726Z,95.07
2018-02-07T07:16:24.681Z,94.51
2018-02-07T07:17:24.649Z,95.26
2018-02-07T07:18:24.613Z,95.17
2018-02-07T07:19:24.582Z,95.17
2018-02-07T07:20:24.549Z,94.98
2018-02-07T07:21:24.518Z,94.69
2018-02-07T07:22:24.484Z,94.88
2018-02-07T07:23:24.456Z,94.79
2018-02-07T07:24:24.420Z,94.69
2018-02-07T07:25:24.390Z,95.36
2018-02-07T07:26:24.359Z,94.41
2018-02-07T07:27:24.324Z,94.32
2018-02-07T07:28:24.295Z,94.69
2018-02-07T07:29:24.261Z,94.79
2018-02-07T07:30:24.235Z,94.41
2018-02-07T07:31:24.204Z,94.32
2018-02-07T07:32:24.166Z,94.79
2018-02-07T07:33:24.135Z,94.98
2018-02-07T07:34:24.105Z,94.22
2018-02-07T07:35:24.074Z,94.51
2018-02-07T07:36:24.040Z,94.69
2018-02-07T07:37:24.017Z,94.69
2018-02-07T07:38:23.976Z,94.69
2018-02-07T07:39:23.944Z,94.79
2018-02-07T07:40:23.908Z,94.69
2018-02-07T07:41:23.883Z,94.69
2018-02-07T07:42:23.846Z,95.17
2018-02-07T07:43:23.815Z,94.69
2018-02-07T07:44:23.780Z,94.79
2018-02-07T07:45:23.755Z,94.60
2018-02-07T07:46:23.724Z,94.69
2018-02-07T07:47:23.691Z,94.88
2018-02-07T07:48:23.658Z,94.88
2018-02-07T07:49:23.625Z,94.60
2018-02-07T07:50:23.601Z,94.69
2018-02-07T07:51:23.562Z,94.22
2018-02-07T07:52:23.531Z,94.88
2018-02-07T07:53:23.498Z,94.79
2018-02-07T07:54:23.467Z,94.51
2018-02-07T07:55:23.434Z,94.41
2018-02-07T07:56:23.401Z,94.98
2018-02-07T07:57:23.368Z,94.41
2018-02-07T07:58:23.340Z,94.79
2018-02-07T07:59:23.315Z,94.98
2018-02-07T08:00:23.284Z,94.79
2018-02-07T08:01:23.247Z,94.41
2018-02-07T08:02:23.213Z,94.79
2018-02-07T08:03:23.177Z,95.17
2018-02-07T08:04:23.157Z,94.69
2018-02-07T08:05:23.117Z,94.84
2018-02-07T08:06:23.082Z,95.40
2018-02-07T08:07:23.051Z,94.88
2018-02-07T08:08:23.021Z,94.74
2018-02-07T08:09:22.993Z,94.65
2018-02-07T08:10:22.956Z,94.65
2018-02-07T08:11:22.928Z,94.65
2018-02-07T08:12:22.896Z,94.74
2018-02-07T08:13:22.876Z,94.65
2018-02-07T08:14:22.840Z,95.21
2018-02-07T08:15:22.817Z,94.74
2018-02-07T08:16:22.768Z,95.21
2018-02-07T08:17:22.733Z,94.55
2018-02-07T08:18:22.702Z,95.03
2018-02-07T08:19:22.674Z,95.03
2018-02-07T08:20:22.660Z,94.65
2018-02-07T08:21:22.643Z,94.74
2018-02-07T08:22:22.577Z,95.31
2018-02-07T08:23:22.539Z,94.93
2018-02-07T08:24:22.544Z,95.31
2018-02-07T08:25:22.496Z,94.93
2018-02-07T08:26:22.451Z,94.74
2018-02-07T08:27:22.468Z,94.93
2018-02-07T08:28:22.387Z,94.84
2018-02-07T08:29:22.355Z,94.84
2018-02-07T08:30:22.324Z,94.84
2018-02-07T08:31:22.294Z,95.12
2018-02-07T08:32:22.274Z,94.65
2018-02-07T08:33:22.248Z,95.03
2018-02-07T08:34:22.245Z,94.74
2018-02-07T08:35:22.166Z,95.03
2018-02-07T08:36:22.135Z,94.84
2018-02-07T08:37:22.115Z,95.12
2018-02-07T08:38:22.103Z,94.84
2018-02-07T08:39:22.043Z,94.93
2018-02-07T08:40:22.007Z,95.03
2018-02-07T08:41:21.971Z,94.84
2018-02-07T08:42:21.964Z,95.12
2018-02-07T08:43:22.081Z,95.03
2018-02-07T08:44:21.931Z,94.93
2018-02-07T08:45:21.849Z,94.93
2018-02-07T08:46:21.828Z,95.03
2018-02-07T08:47:21.870Z,95.31
2018-02-07T08:48:21.750Z,94.65
2018-02-07T08:49:21.726Z,94.93
2018-02-07T08:50:21.729Z,95.21
2018-02-07T08:51:21.708Z,95.03
2018-02-07T08:52:21.701Z,95.21
2018-02-07T08:53:21.626Z,94.84
2018-02-07T08:54:21.599Z,95.31
2018-02-07T08:55:21.555Z,95.21
2018-02-07T08:56:21.501Z,95.21
2018-02-07T08:57:21.473Z,95.03
2018-02-07T08:58:21.442Z,95.07
2018-02-07T08:59:21.432Z,95.17
2018-02-07T09:00:21.376Z,95.26
2018-02-07T09:01:21.350Z,95.26
2018-02-07T09:02:21.314Z,95.64
2018-02-07T09:03:21.281Z,94.98
2018-02-07T09:04:21.255Z,95.07
2018-02-07T09:05:21.227Z,94.32
2018-02-07T09:06:21.190Z,94.60
2018-02-07T09:07:21.199Z,94.32
2018-02-07T09:08:21.131Z,94.51
2018-02-07T09:09:21.113Z,94.89
2018-02-07T09:10:21.065Z,94.79
2018-02-07T09:11:21.040Z,94.51
2018-02-07T09:12:21.020Z,94.22
2018-02-07T09:13:20.972Z,94.41
2018-02-07T09:14:20.946Z,94.70
2018-02-07T09:15:20.928Z,94.89
2018-02-07T09:16:20.895Z,94.51
2018-02-07T09:17:20.848Z,93.75
2018-02-07T09:18:20.814Z,94.41
2018-02-07T09:19:20.787Z,94.70
2018-02-07T09:20:20.775Z,94.41
2018-02-07T09:21:20.722Z,94.60
2018-02-07T09:22:20.699Z,94.60
2018-02-07T09:23:20.668Z,93.94
2018-02-07T09:24:20.640Z,94.37
2018-02-07T09:25:20.805Z,93.80
2018-02-07T09:26:20.603Z,93.99
2018-02-07T09:27:20.564Z,93.80
2018-02-07T09:28:20.518Z,93.99
2018-02-07T09:29:20.482Z,93.70
2018-02-07T09:30:20.454Z,93.70
2018-02-07T09:31:20.429Z,93.32
2018-02-07T09:32:20.386Z,93.99
2018-02-07T09:33:20.368Z,93.89
2018-02-07T09:34:20.327Z,93.70
2018-02-07T09:35:20.300Z,93.80
2018-02-07T09:36:20.303Z,93.61
2018-02-07T09:37:20.237Z,93.89
2018-02-07T09:38:20.218Z,93.89
2018-02-07T09:39:20.174Z,93.23
2018-02-07T09:40:20.186Z,93.23
2018-02-07T09:41:20.109Z,93.32
2018-02-07T09:42:20.089Z,93.51
2018-02-07T09:43:20.057Z,93.61
2018-02-07T09:44:20.046Z,92.85
2018-02-07T09:45:20.006Z,92.66
2018-02-07T09:46:19.966Z,92.19
2018-02-07T09:47:19.931Z,92.71
2018-02-07T09:48:19.908Z,92.14
2018-02-07T09:49:19.871Z,92.24
2018-02-07T09:50:19.850Z,91.86
2018-02-07T09:51:19.821Z,91.67
2018-02-07T09:52:19.782Z,91.86
2018-02-07T09:53:19.770Z,91.39
2018-02-07T09:54:19.724Z,91.34
2018-02-07T09:55:19.693Z,90.86
2018-02-07T09:56:19.663Z,90.39
2018-02-07T09:57:19.637Z,90.20
2018-02-07T09:58:19.603Z,90.01
2018-02-07T09:59:19.591Z,89.92
2018-02-07T10:00:19.554Z,89.92
2018-02-07T10:01:19.523Z,89.54
2018-02-07T10:02:19.490Z,89.83
2018-02-07T10:03:19.469Z,89.12
2018-02-07T10:04:19.437Z,89.50
2018-02-07T10:05:19.402Z,89.02
2018-02-07T10:06:19.390Z,88.45
2018-02-07T10:07:19.383Z,88.07
2018-02-07T10:08:19.314Z,88.45
2018-02-07T10:09:19.303Z,87.60
2018-02-07T10:10:19.257Z,87.41
2018-02-07T10:11:19.240Z,87.51
2018-02-07T10:12:19.228Z,86.94
2018-02-07T10:13:19.178Z,87.23
2018-02-07T10:14:19.168Z,86.85
2018-02-07T10:15:19.132Z,86.18
2018-02-07T10:16:19.101Z,86.51
2018-02-07T10:17:19.098Z,86.51
2018-02-07T10:18:19.089Z,85.85
2018-02-07T10:19:19.035Z,85.00
2018-02-07T10:20:19.015Z,84.81
2018-02-07T10:21:18.964Z,83.76
2018-02-07T10:22:18.949Z,84.14
2018-02-07T10:23:18.932Z,84.14
2018-02-07T10:24:18.891Z,84.09
2018-02-07T10:25:18.869Z,83.71
2018-02-07T10:26:18.866Z,82.10
2018-02-07T10:27:18.822Z,81.63
2018-02-07T10:28:18.831Z,81.25
2018-02-07T10:29:18.796Z,82.48
2018-02-07T10:30:18.744Z,81.06
2018-02-07T10:31:18.725Z,81.53
2018-02-07T10:32:18.701Z,81.53
2018-02-07T10:33:18.670Z,81.63
2018-02-07T10:34:18.646Z,80.68
2018-02-07T10:35:18.620Z,80.68
2018-02-07T10:36:18.597Z,80.11
2018-02-07T10:37:18.579Z,78.98
2018-02-07T10:38:18.557Z,78.41
2018-02-07T10:39:18.525Z,79.74
2018-02-07T10:40:18.511Z,80.15
2018-02-07T10:41:18.483Z,79.11
2018-02-07T10:42:18.494Z,77.69
2018-02-07T10:43:18.434Z,77.12
2018-02-07T10:44:18.429Z,76.84
2018-02-07T10:45:18.393Z,76.55
2018-02-07T10:46:18.387Z,76.17
2018-02-07T10:47:18.352Z,75.13
2018-02-07T10:48:18.378Z,73.65
2018-02-07T10:49:18.300Z,74.03
2018-02-07T10:50:18.286Z,73.56
2018-02-07T10:51:18.261Z,72.89
2018-02-07T10:52:18.235Z,73.18
2018-02-07T10:53:18.215Z,72.04
2018-02-07T10:54:18.202Z,72.17
2018-02-07T10:55:18.171Z,71.13
2018-02-07T10:56:18.155Z,69.90
2018-02-07T10:57:18.128Z,68.85
2018-02-07T10:58:18.108Z,68.57
2018-02-07T10:59:18.088Z,68.19
2018-02-07T11:00:18.068Z,68.00
2018-02-07T11:01:18.065Z,67.11
2018-02-07T11:02:18.029Z,69.52
2018-02-07T11:03:18.009Z,69.80
2018-02-07T11:04:18.004Z,68.10
2018-02-07T11:05:17.973Z,66.89
2018-02-07T11:06:17.961Z,67.08
2018-02-07T11:07:17.932Z,64.71
2018-02-07T11:08:17.919Z,66.33
2018-02-07T11:09:17.902Z,65.56
2018-02-07T11:10:17.885Z,65.56
2018-02-07T11:11:17.858Z,65.22
2018-02-07T11:12:17.836Z,64.27
2018-02-07T11:13:17.822Z,63.23
2018-02-07T11:14:17.813Z,62.18
2018-02-07T11:15:17.782Z,62.46
2018-02-07T11:16:17.759Z,62.46
2018-02-07T11:17:17.754Z,62.18
2018-02-07T11:18:17.727Z,61.33
2018-02-07T11:19:17.709Z,61.99
2018-02-07T11:20:17.703Z,61.71
2018-02-07T11:21:17.690Z,62.56
2018-02-07T11:22:17.714Z,61.26
2018-02-07T11:23:17.637Z,61.17
2018-02-07T11:24:17.633Z,60.41
2018-02-07T11:25:17.606Z,58.61
2018-02-07T11:26:17.589Z,58.41
2018-02-07T11:27:17.569Z,58.80
2018-02-07T11:28:17.584Z,59.36
2018-02-07T11:29:17.540Z,59.33
2018-02-07T11:30:17.521Z,60.03
2018-02-07T11:31:17.507Z,59.62
2018-02-07T11:32:17.490Z,58.29
2018-02-07T11:33:17.473Z,59.05
2018-02-07T11:34:17.461Z,60.38
2018-02-07T11:35:17.443Z,60.98
2018-02-07T11:36:17.419Z,60.31
2018-02-07T11:37:17.413Z,58.41
2018-02-07T11:38:17.393Z,59.08
2018-02-07T11:39:17.385Z,56.70
2018-02-07T11:40:17.355Z,56.99
2018-02-07T11:41:17.338Z,58.41
2018-02-07T11:42:17.321Z,58.51
2018-02-07T11:43:17.305Z,57.94
2018-02-07T11:44:17.322Z,57.94
2018-02-07T11:45:17.272Z,58.22
2018-02-07T11:46:17.260Z,57.75
2018-02-07T11:47:17.254Z,57.18
2018-02-07T11:48:17.230Z,56.51
2018-02-07T11:49:17.217Z,55.97
2018-02-07T11:50:17.196Z,55.02
2018-02-07T11:51:17.176Z,55.59
2018-02-07T11:52:17.167Z,56.16
2018-02-07T11:53:17.148Z,56.45
2018-02-07T11:54:17.131Z,55.71
2018-02-07T11:55:17.118Z,55.43
2018-02-07T11:56:17.120Z,53.24
2018-02-07T11:57:17.088Z,52.58
2018-02-07T11:58:17.074Z,52.86
2018-02-07T11:59:17.073Z,53.41
2018-02-07T12:00:17.041Z,54.38
2018-02-07T12:01:17.023Z,53.91
2018-02-07T12:02:17.025Z,53.97
2018-02-07T12:03:16.997Z,53.53
2018-02-07T12:04:16.981Z,54.17
2018-02-07T12:05:16.985Z,55.69
2018-02-07T12:06:16.946Z,55.21
2018-02-07T12:07:16.930Z,55.69
2018-02-07T12:08:16.921Z,56.54
2018-02-07T12:09:16.922Z,55.59
2018-02-07T12:10:16.890Z,55.05
2018-02-07T12:11:16.878Z,53.53
2018-02-07T12:12:16.873Z,52.55
2018-02-07T12:13:16.840Z,54.17
2018-02-07T12:14:16.838Z,53.88
2018-02-07T12:15:16.819Z,54.93
2018-02-07T12:16:16.801Z,54.96
2018-02-07T12:17:16.784Z,52.58
2018-02-07T12:18:16.770Z,51.72
2018-02-07T12:19:16.765Z,52.86
2018-02-07T12:20:16.743Z,52.96
2018-02-07T12:21:16.724Z,54.00
2018-02-07T12:22:16.723Z,52.41
2018-02-07T12:23:16.694Z,51.37
2018-02-07T12:24:16.683Z,51.18
2018-02-07T12:25:16.670Z,51.62
2018-02-07T12:26:16.707Z,53.46
2018-02-07T12:27:16.655Z,52.51
2018-02-07T12:28:16.627Z,52.13
2018-02-07T12:29:16.614Z,51.75
2018-02-07T12:30:16.595Z,50.42
2018-02-07T12:31:16.575Z,50.51
2018-02-07T12:32:16.565Z,50.70
2018-02-07T12:33:16.577Z,51.46
2018-02-07T12:34:16.543Z,49.73
2018-02-07T12:35:16.532Z,51.37
2018-02-07T12:36:16.503Z,52.80
2018-02-07T12:37:16.543Z,51.37
2018-02-07T12:38:16.481Z,50.60
2018-02-07T12:39:16.465Z,50.51
2018-02-07T12:40:16.448Z,49.75
2018-02-07T12:41:16.431Z,50.20
2018-02-07T12:42:16.418Z,51.53
2018-02-07T12:43:16.404Z,51.27
2018-02-07T12:44:16.387Z,50.04
2018-02-07T12:45:16.379Z,51.08
2018-02-07T12:46:16.894Z,52.03
2018-02-07T12:47:16.341Z,50.15
2018-02-07T12:48:16.341Z,50.25
2018-02-07T12:49:16.320Z,50.35
2018-02-07T12:50:16.304Z,49.11
2018-02-07T12:51:16.305Z,49.13
2018-02-07T12:52:16.279Z,48.44